createdAt,value
2023-02-19T00:01:12.338Z,96327.22
2023-02-19T00:03:39.653Z,96326.13
2023-02-19T00:06:09.854Z,96329.75
2023-02-19T00:08:38.379Z,96327.81
2023-02-19T00:11:08.709Z,96325.75
2023-02-19T00:13:39.174Z,96326.59
2023-02-19T00:16:07.477Z,96324.34
2023-02-19T00:18:35.985Z,96326.97
2023-02-19T00:21:03.766Z,96327.41
2023-02-19T00:23:30.894Z,96328.38
2023-02-19T00:26:03.184Z,96336.19
2023-02-19T00:28:36.315Z,96332.00
2023-02-19T00:31:06.910Z,96326.84
2023-02-19T00:33:34.453Z,96334.34
2023-02-19T00:36:02.898Z,96345.31
2023-02-19T00:38:29.686Z,96344.50
2023-02-19T00:40:56.371Z,96340.16
2023-02-19T00:43:23.020Z,96347.66
2023-02-19T00:45:49.672Z,96352.72
2023-02-19T00:51:57.053Z,96349.91
2023-02-19T00:54:23.808Z,96348.81
2023-02-19T00:56:50.757Z,96349.78
2023-02-19T00:59:17.541Z,96342.66
2023-02-19T01:01:44.903Z,96341.13
2023-02-19T01:04:11.701Z,96344.44
2023-02-19T01:06:38.319Z,96338.91
2023-02-19T01:09:06.124Z,96331.50
2023-02-19T01:11:32.813Z,96320.47
2023-02-19T01:14:00.975Z,96319.09
2023-02-19T01:16:28.279Z,96317.75
2023-02-19T01:18:56.564Z,96317.75
2023-02-19T01:21:25.713Z,96312.69
2023-02-19T01:23:52.825Z,96305.31
2023-02-19T01:26:22.440Z,96305.16
2023-02-19T01:28:49.704Z,96303.19
2023-02-19T01:31:19.536Z,96300.53
2023-02-19T01:33:47.648Z,96296.63
2023-02-19T01:36:14.922Z,96304.00
2023-02-19T01:38:42.399Z,96294.38
2023-02-19T01:41:12.476Z,96295.63
2023-02-19T01:44:17.231Z,96294.66
2023-02-19T01:46:48.815Z,96296.06
2023-02-19T01:49:23.950Z,96286.03
2023-02-19T01:51:59.168Z,96283.28
2023-02-19T01:54:31.098Z,96275.91
2023-02-19T01:56:59.957Z,96283.38
2023-02-19T01:59:26.630Z,96281.34
2023-02-19T02:01:53.499Z,96280.66
2023-02-19T02:04:20.339Z,96280.91
2023-02-19T02:06:53.689Z,96276.84
2023-02-19T02:09:41.015Z,96271.56
2023-02-19T02:12:07.908Z,96266.88
2023-02-19T02:14:38.179Z,96268.94
2023-02-19T02:17:31.473Z,96268.56
2023-02-19T02:20:16.079Z,96267.03
2023-02-19T02:22:51.487Z,96268.84
2023-02-19T02:25:55.330Z,96267.75
2023-02-19T02:28:40.623Z,96272.75
2023-02-19T02:31:23.179Z,96267.34
2023-02-19T02:33:49.834Z,96257.47
2023-02-19T02:36:22.131Z,96266.75
2023-02-19T02:38:50.153Z,96254.06
2023-02-19T02:41:16.962Z,96272.41
2023-02-19T02:43:43.645Z,96255.97
2023-02-19T02:46:16.681Z,96264.19
2023-02-19T02:48:54.088Z,96254.72
2023-02-19T02:51:44.015Z,96252.16
2023-02-19T02:54:31.142Z,96251.84
2023-02-19T02:56:59.364Z,96247.94
2023-02-19T02:59:28.856Z,96251.44
2023-02-19T03:02:14.745Z,96234.75
2023-02-19T03:05:39.841Z,96242.13
2023-02-19T03:08:15.365Z,96245.81
2023-02-19T03:10:52.599Z,96239.81
2023-02-19T03:13:43.941Z,96244.66
2023-02-19T03:16:34.592Z,96248.41
2023-02-19T03:19:20.075Z,96245.22
2023-02-19T03:21:59.883Z,96247.00
2023-02-19T03:24:52.079Z,96254.47
2023-02-19T03:27:21.096Z,96257.44
2023-02-19T03:29:50.293Z,96246.47
2023-02-19T03:32:33.154Z,96240.00
2023-02-19T03:35:06.400Z,96244.44
2023-02-19T03:37:39.916Z,96254.88
2023-02-19T03:40:07.334Z,96258.72
2023-02-19T03:43:08.964Z,96252.78
2023-02-19T03:45:55.837Z,96247.94
2023-02-19T03:48:33.860Z,96260.34
2023-02-19T03:51:08.371Z,96250.63
2023-02-19T03:55:01.869Z,96252.31
2023-02-19T03:57:39.499Z,96257.06
2023-02-19T04:00:14.517Z,96246.59
2023-02-19T04:02:58.772Z,96239.91
2023-02-19T04:05:32.221Z,96246.25
2023-02-19T04:08:04.166Z,96241.00
2023-02-19T04:10:32.178Z,96230.81
2023-02-19T04:13:10.648Z,96239.63
2023-02-19T04:15:41.862Z,96231.13
2023-02-19T04:18:14.509Z,96233.78
2023-02-19T04:20:44.630Z,96226.84
2023-02-19T04:23:12.706Z,96227.66
2023-02-19T04:25:43.410Z,96230.91
2023-02-19T04:28:10.459Z,96226.91
2023-02-19T04:30:37.179Z,96232.50
2023-02-19T04:33:03.905Z,96238.22
2023-02-19T04:35:30.665Z,96232.81
2023-02-19T04:37:57.300Z,96226.31
2023-02-19T04:40:23.888Z,96222.41
2023-02-19T04:42:50.549Z,96227.94
2023-02-19T04:45:17.164Z,96215.22
2023-02-19T04:47:43.898Z,96222.13
2023-02-19T04:50:10.638Z,96225.03
2023-02-19T04:52:37.389Z,96231.91
2023-02-19T04:55:04.423Z,96210.28
2023-02-19T04:57:31.453Z,96223.16
2023-02-19T04:59:58.078Z,96231.59
2023-02-19T05:02:24.780Z,96228.81
2023-02-19T05:04:51.382Z,96229.81
2023-02-19T05:07:18.732Z,96221.31
2023-02-19T05:09:45.301Z,96222.25
2023-02-19T05:12:11.909Z,96226.13
2023-02-19T05:14:38.751Z,96225.31
2023-02-19T05:17:05.367Z,96220.03
2023-02-19T05:19:32.127Z,96197.25
2023-02-19T05:21:58.796Z,96185.34
2023-02-19T05:24:26.879Z,96191.56
2023-02-19T05:26:53.517Z,96188.38
2023-02-19T05:30:32.987Z,96186.88
2023-02-19T05:32:59.613Z,96183.47
2023-02-19T05:35:26.286Z,96195.84
2023-02-19T05:37:52.912Z,96198.56
2023-02-19T05:40:19.523Z,96198.19
2023-02-19T05:42:46.224Z,96211.69
2023-02-19T05:45:12.874Z,96217.81
2023-02-19T05:47:39.487Z,96213.00
2023-02-19T05:50:06.620Z,96217.59
2023-02-19T05:52:33.253Z,96212.16
2023-02-19T05:54:59.859Z,96202.69
2023-02-19T05:57:26.581Z,96204.31
2023-02-19T05:59:53.194Z,96191.97
2023-02-19T06:02:19.839Z,96190.41
2023-02-19T06:04:46.437Z,96210.13
2023-02-19T06:07:13.056Z,96214.09
2023-02-19T06:09:39.692Z,96225.38
2023-02-19T06:12:08.148Z,96218.25
2023-02-19T06:14:34.791Z,96218.09
2023-02-19T06:17:01.440Z,96218.34
2023-02-19T06:19:28.091Z,96224.28
2023-02-19T06:21:54.710Z,96218.47
2023-02-19T06:24:21.370Z,96219.31
2023-02-19T06:26:47.999Z,96221.94
2023-02-19T06:29:14.660Z,96219.44
2023-02-19T06:31:41.340Z,96209.13
2023-02-19T06:34:08.025Z,96204.41
2023-02-19T06:36:34.694Z,96204.13
2023-02-19T06:39:02.221Z,96195.25
2023-02-19T06:41:28.946Z,96210.94
2023-02-19T06:43:57.476Z,96227.09
2023-02-19T06:46:24.191Z,96222.28
2023-02-19T06:48:50.900Z,96217.84
2023-02-19T06:51:23.813Z,96220.16
2023-02-19T06:53:50.727Z,96217.78
2023-02-19T06:56:26.809Z,96227.59
2023-02-19T06:58:56.144Z,96218.28
2023-02-19T07:01:23.787Z,96233.00
2023-02-19T07:03:51.042Z,96236.09
2023-02-19T07:06:17.857Z,96221.78
2023-02-19T07:08:44.789Z,96227.91
2023-02-19T07:11:11.829Z,96228.63
2023-02-19T07:13:38.626Z,96237.09
2023-02-19T07:16:08.055Z,96238.63
2023-02-19T07:18:35.380Z,96235.03
2023-02-19T07:21:07.609Z,96239.34
2023-02-19T07:23:34.703Z,96233.53
2023-02-19T07:26:01.573Z,96224.81
2023-02-19T07:28:28.386Z,96223.41
2023-02-19T07:31:01.369Z,96226.88
2023-02-19T07:33:28.161Z,96216.47
2023-02-19T07:35:54.776Z,96228.28
2023-02-19T07:38:23.548Z,96231.78
2023-02-19T07:40:55.235Z,96228.16
2023-02-19T07:43:22.684Z,96234.00
2023-02-19T07:45:49.478Z,96250.97
2023-02-19T07:48:16.830Z,96240.00
2023-02-19T07:50:51.702Z,96230.66
2023-02-19T07:53:18.280Z,96227.59
2023-02-19T07:55:44.891Z,96223.56
2023-02-19T07:58:12.004Z,96226.19
2023-02-19T08:00:38.814Z,96221.91
2023-02-19T08:03:05.780Z,96224.94
2023-02-19T08:05:36.668Z,96217.56
2023-02-19T08:08:06.653Z,96217.56
2023-02-19T08:10:51.961Z,96223.22
2023-02-19T08:13:25.688Z,96220.84
2023-02-19T08:15:55.128Z,96222.25
2023-02-19T08:18:27.814Z,96214.03
2023-02-19T08:20:56.091Z,96218.88
2023-02-19T08:23:23.730Z,96222.66
2023-02-19T08:25:51.672Z,96222.50
2023-02-19T08:28:19.516Z,96205.53
2023-02-19T08:30:47.738Z,96208.78
2023-02-19T08:33:18.301Z,96213.84
2023-02-19T08:35:46.553Z,96214.22
2023-02-19T08:38:16.361Z,96207.38
2023-02-19T08:40:43.986Z,96225.22
2023-02-19T08:43:13.949Z,96214.94
2023-02-19T08:45:42.438Z,96213.38
2023-02-19T08:48:09.412Z,96208.38
2023-02-19T08:50:36.561Z,96212.25
2023-02-19T08:53:05.009Z,96209.69
2023-02-19T08:55:31.852Z,96207.75
2023-02-19T08:57:58.945Z,96197.16
2023-02-19T09:00:25.739Z,96205.13
2023-02-19T09:02:52.588Z,96202.06
2023-02-19T09:05:19.266Z,96197.97
2023-02-19T09:07:45.944Z,96189.25
2023-02-19T09:10:13.928Z,96200.25
2023-02-19T09:12:40.998Z,96190.78
2023-02-19T09:15:08.275Z,96187.97
2023-02-19T09:17:34.972Z,96191.41
2023-02-19T09:20:01.684Z,96196.88
2023-02-19T09:22:28.360Z,96192.44
2023-02-19T09:24:55.324Z,96181.75
2023-02-19T09:27:22.032Z,96170.28
2023-02-19T09:29:48.687Z,96183.41
2023-02-19T09:32:16.664Z,96192.41
2023-02-19T09:34:44.720Z,96188.97
2023-02-19T09:37:11.489Z,96170.69
2023-02-19T09:39:38.292Z,96167.09
2023-02-19T09:42:15.404Z,96165.47
2023-02-19T09:44:45.550Z,96173.75
2023-02-19T09:47:21.840Z,96150.75
2023-02-19T09:49:52.249Z,96163.88
2023-02-19T09:52:37.731Z,96166.53
2023-02-19T09:55:26.177Z,96154.25
2023-02-19T09:57:53.440Z,96165.06
2023-02-19T10:00:26.767Z,96149.47
2023-02-19T10:03:30.936Z,96151.56
2023-02-19T10:06:23.754Z,96143.28
2023-02-19T10:08:53.273Z,96146.09
2023-02-19T10:11:20.197Z,96142.44
2023-02-19T10:14:02.366Z,96159.41
2023-02-19T10:16:29.701Z,96165.03
2023-02-19T10:18:56.722Z,96132.09
2023-02-19T10:21:28.163Z,96155.91
2023-02-19T10:24:03.103Z,96129.38
2023-02-19T10:26:34.817Z,96146.97
2023-02-19T10:29:03.519Z,96118.34
2023-02-19T10:31:32.962Z,96134.66
2023-02-19T10:34:02.181Z,96127.34
2023-02-19T10:36:33.042Z,96120.94
2023-02-19T10:39:01.973Z,96117.00
2023-02-19T10:41:29.253Z,96123.75
2023-02-19T10:44:10.947Z,96120.25
2023-02-19T10:46:43.355Z,96116.84
2023-02-19T10:49:22.627Z,96134.53
2023-02-19T10:51:49.633Z,96106.91
2023-02-19T10:54:25.249Z,96125.44
2023-02-19T10:56:52.011Z,96126.88
2023-02-19T10:59:18.636Z,96117.00
2023-02-19T11:02:02.579Z,96127.06
2023-02-19T11:04:35.595Z,96139.66
2023-02-19T11:07:17.111Z,96124.34
2023-02-19T11:09:52.886Z,96135.94
2023-02-19T11:12:34.938Z,96113.91
2023-02-19T11:15:20.326Z,96119.34
2023-02-19T11:17:55.605Z,96121.72
2023-02-19T11:20:22.646Z,96122.75
2023-02-19T11:22:49.911Z,96128.34
2023-02-19T11:25:17.214Z,96117.25
2023-02-19T11:27:59.137Z,96104.47
2023-02-19T11:30:36.130Z,96131.53
2023-02-19T11:33:27.729Z,96115.22
2023-02-19T11:36:24.565Z,96111.09
2023-02-19T11:38:51.275Z,96099.91
2023-02-19T11:41:34.157Z,96105.50
2023-02-19T11:44:30.438Z,96107.16
2023-02-19T11:47:06.141Z,96105.69
2023-02-19T11:49:49.296Z,96106.94
2023-02-19T11:52:34.217Z,96104.03
2023-02-19T11:55:18.545Z,96095.16
2023-02-19T11:58:11.233Z,96104.44
2023-02-19T12:00:53.874Z,96103.81
2023-02-19T12:03:45.588Z,96118.47
2023-02-19T12:06:36.919Z,96094.88
2023-02-19T12:09:15.683Z,96112.81
2023-02-19T12:11:42.268Z,96112.97
2023-02-19T12:14:28.133Z,96118.50
2023-02-19T12:17:27.069Z,96110.66
2023-02-19T12:20:10.679Z,96137.28
2023-02-19T12:23:03.124Z,96124.31
2023-02-19T12:25:51.364Z,96136.09
2023-02-19T12:28:53.429Z,96146.66
2023-02-19T12:31:33.071Z,96128.41
2023-02-19T12:34:18.086Z,96132.81
2023-02-19T12:36:56.575Z,96139.44
2023-02-19T12:39:33.339Z,96149.97
2023-02-19T12:42:21.698Z,96149.69
2023-02-19T12:44:56.187Z,96146.94
2023-02-19T12:47:28.599Z,96150.75
2023-02-19T12:50:16.835Z,96164.03
2023-02-19T12:52:49.916Z,96155.50
2023-02-19T12:55:24.871Z,96149.66
2023-02-19T12:57:53.166Z,96161.59
2023-02-19T13:00:29.010Z,96152.53
2023-02-19T13:02:58.644Z,96163.81
2023-02-19T13:05:50.088Z,96173.69
2023-02-19T13:08:25.718Z,96156.41
2023-02-19T13:10:57.995Z,96150.81
2023-02-19T13:13:34.700Z,96160.63
2023-02-19T13:16:09.941Z,96184.47
2023-02-19T13:18:44.386Z,96175.81
2023-02-19T13:21:35.325Z,96175.13
2023-02-19T13:24:09.534Z,96176.06
2023-02-19T13:27:05.250Z,96201.81
2023-02-19T13:29:47.220Z,96203.94
2023-02-19T13:32:25.671Z,96208.38
2023-02-19T13:35:22.659Z,96204.97
2023-02-19T13:37:50.375Z,96218.88
2023-02-19T13:40:39.498Z,96216.91
2023-02-19T13:43:28.349Z,96209.84
2023-02-19T13:46:00.832Z,96221.88
2023-02-19T13:48:40.165Z,96235.19
2023-02-19T13:51:13.081Z,96240.94
2023-02-19T13:53:46.056Z,96248.09
2023-02-19T13:56:34.340Z,96258.13
2023-02-19T13:59:24.771Z,96270.75
2023-02-19T14:01:54.064Z,96267.44
2023-02-19T14:04:44.852Z,96255.22
2023-02-19T14:07:11.500Z,96265.66
2023-02-19T14:09:39.973Z,96261.06
2023-02-19T14:12:15.071Z,96274.09
2023-02-19T14:14:46.818Z,96269.47
2023-02-19T14:17:33.283Z,96281.22
2023-02-19T14:20:01.138Z,96258.19
2023-02-19T14:22:45.838Z,96276.06
2023-02-19T14:25:28.413Z,96299.28
2023-02-19T14:28:06.644Z,96299.16
2023-02-19T14:30:35.569Z,96294.38
2023-02-19T14:33:10.569Z,96295.88
2023-02-19T14:35:41.451Z,96287.75
2023-02-19T14:38:36.126Z,96301.97
2023-02-19T14:41:03.868Z,96293.25
2023-02-19T14:43:31.992Z,96301.44
2023-02-19T14:48:46.494Z,96314.44
2023-02-19T14:51:23.320Z,96333.13
2023-02-19T14:53:51.914Z,96333.28
2023-02-19T14:56:26.189Z,96332.13
2023-02-19T14:59:09.085Z,96334.78
2023-02-19T15:01:35.939Z,96351.47
2023-02-19T15:04:02.952Z,96335.59
2023-02-19T15:06:31.722Z,96339.59
2023-02-19T15:09:02.712Z,96352.97
2023-02-19T15:11:32.675Z,96344.50
2023-02-19T15:14:02.766Z,96351.97
2023-02-19T15:16:31.396Z,96353.81
2023-02-19T15:18:59.889Z,96347.63
2023-02-19T15:21:29.724Z,96352.66
2023-02-19T15:23:59.734Z,96353.19
2023-02-19T15:26:35.993Z,96360.84
2023-02-19T15:29:09.758Z,96365.50
2023-02-19T15:31:37.031Z,96364.50
2023-02-19T15:34:03.981Z,96370.19
2023-02-19T15:36:34.078Z,96358.69
2023-02-19T15:39:04.041Z,96359.53
2023-02-19T15:41:34.681Z,96370.66
2023-02-19T15:44:28.926Z,96371.00
2023-02-19T15:46:57.119Z,96374.50
2023-02-19T15:49:41.559Z,96373.00
2023-02-19T15:52:12.178Z,96365.50
2023-02-19T15:54:49.386Z,96367.00
2023-02-19T15:57:23.000Z,96380.31
2023-02-19T16:00:12.727Z,96366.47
2023-02-19T16:02:40.659Z,96366.13
2023-02-19T16:05:23.135Z,96369.47
2023-02-19T16:08:06.726Z,96376.41
2023-02-19T16:10:33.548Z,96375.88
2023-02-19T16:13:02.642Z,96386.66
2023-02-19T16:15:31.293Z,96393.44
2023-02-19T16:17:59.085Z,96403.38
2023-02-19T16:20:29.872Z,96408.19
2023-02-19T16:23:03.091Z,96412.41
2023-02-19T16:25:41.875Z,96409.63
2023-02-19T16:28:22.991Z,96409.75
2023-02-19T16:30:58.330Z,96418.44
2023-02-19T16:33:28.047Z,96413.44
2023-02-19T16:35:54.695Z,96415.06
2023-02-19T16:38:21.582Z,96418.16
2023-02-19T16:40:48.145Z,96418.72
2023-02-19T16:43:14.794Z,96412.56
2023-02-19T16:45:42.469Z,96421.16
2023-02-19T16:48:10.246Z,96420.81
2023-02-19T16:50:39.696Z,96426.13
2023-02-19T16:53:06.245Z,96433.94
2023-02-19T16:55:34.684Z,96436.09
2023-02-19T16:58:01.513Z,96427.81
2023-02-19T17:00:30.546Z,96429.16
2023-02-19T17:03:00.940Z,96435.81
2023-02-19T17:05:30.379Z,96434.00
2023-02-19T17:07:57.063Z,96434.31
2023-02-19T17:10:26.245Z,96427.38
2023-02-19T17:12:54.110Z,96442.03
2023-02-19T17:15:21.510Z,96447.50
2023-02-19T17:17:48.714Z,96421.59
2023-02-19T17:20:27.764Z,96442.88
2023-02-19T17:22:55.429Z,96439.09
2023-02-19T17:25:22.680Z,96439.91
2023-02-19T17:27:49.752Z,96452.75
2023-02-19T17:30:29.196Z,96441.59
2023-02-19T17:32:55.990Z,96451.91
2023-02-19T17:36:59.746Z,96461.00
2023-02-19T17:39:26.590Z,96460.88
2023-02-19T17:41:53.197Z,96459.06
2023-02-19T17:44:19.807Z,96453.56
2023-02-19T17:46:48.038Z,96466.38
2023-02-19T17:49:14.757Z,96468.00
2023-02-19T17:51:41.435Z,96474.63
2023-02-19T17:54:08.503Z,96469.88
2023-02-19T17:56:35.181Z,96468.69
2023-02-19T17:59:01.907Z,96488.63
2023-02-19T18:01:28.705Z,96482.50
2023-02-19T18:03:55.395Z,96467.06
2023-02-19T18:06:22.042Z,96481.72
2023-02-19T18:08:51.012Z,96485.69
2023-02-19T18:11:19.134Z,96482.50
2023-02-19T18:13:46.208Z,96495.50
2023-02-19T18:16:15.640Z,96490.50
2023-02-19T18:18:42.940Z,96502.88
2023-02-19T18:21:11.199Z,96487.97
2023-02-19T18:23:38.596Z,96485.31
2023-02-19T18:26:11.121Z,96490.94
2023-02-19T18:28:38.282Z,96489.66
2023-02-19T18:31:05.965Z,96495.81
2023-02-19T18:33:34.676Z,96517.09
2023-02-19T18:36:01.326Z,96507.25
2023-02-19T18:38:27.989Z,96509.88
2023-02-19T18:40:54.676Z,96534.81
2023-02-19T18:43:21.361Z,96517.72
2023-02-19T18:45:48.012Z,96528.88
2023-02-19T18:48:14.643Z,96523.88
2023-02-19T18:50:41.354Z,96516.03
2023-02-19T18:53:08.011Z,96533.16
2023-02-19T18:55:34.637Z,96512.13
2023-02-19T19:00:27.902Z,96507.53
2023-02-19T19:02:56.904Z,96485.06
2023-02-19T19:05:24.869Z,96491.78
2023-02-19T19:07:56.579Z,96489.50
2023-02-19T19:10:23.844Z,96495.84
2023-02-19T19:12:51.278Z,96489.84
2023-02-19T19:15:18.921Z,96494.03
2023-02-19T19:17:46.367Z,96494.09
2023-02-19T19:20:14.657Z,96487.28
2023-02-19T19:22:41.321Z,96474.97
2023-02-19T19:25:09.055Z,96463.50
2023-02-19T19:27:36.044Z,96443.00
2023-02-19T19:30:04.845Z,96476.44
2023-02-19T19:32:31.484Z,96476.47
2023-02-19T19:34:58.273Z,96478.16
2023-02-19T19:37:26.849Z,96461.38
2023-02-19T19:39:56.128Z,96471.34
2023-02-19T19:42:22.991Z,96455.38
2023-02-19T19:44:49.688Z,96465.84
2023-02-19T19:47:16.491Z,96466.84
2023-02-19T19:52:21.345Z,96505.78
2023-02-19T19:54:48.092Z,96471.25
2023-02-19T19:57:15.996Z,96501.41
2023-02-19T19:59:42.638Z,96499.72
2023-02-19T20:04:23.458Z,96515.38
2023-02-19T20:06:50.604Z,96513.38
2023-02-19T20:09:18.011Z,96508.84
2023-02-19T20:11:50.786Z,96501.06
2023-02-19T20:14:19.476Z,96530.03
2023-02-19T20:16:47.631Z,96522.31
2023-02-19T20:19:15.642Z,96555.25
2023-02-19T20:21:46.349Z,96548.28
2023-02-19T20:24:28.680Z,96562.25
2023-02-19T20:27:01.958Z,96577.00
2023-02-19T20:29:31.311Z,96571.00
2023-02-19T20:32:00.121Z,96592.41
2023-02-19T20:34:27.462Z,96579.47
2023-02-19T20:36:54.322Z,96599.72
2023-02-19T20:39:21.896Z,96592.66
2023-02-19T20:41:51.676Z,96608.81
2023-02-19T20:44:18.909Z,96612.09
2023-02-19T20:46:48.020Z,96614.59
2023-02-19T20:49:17.158Z,96615.44
2023-02-19T20:51:48.829Z,96615.06
2023-02-19T20:54:20.236Z,96611.09
2023-02-19T20:56:48.626Z,96617.28
2023-02-19T20:59:17.304Z,96626.00
2023-02-19T21:01:44.655Z,96620.81
2023-02-19T21:04:11.848Z,96625.34
2023-02-19T21:06:39.770Z,96627.66
2023-02-19T21:09:07.264Z,96640.59
2023-02-19T21:11:34.072Z,96651.97
2023-02-19T21:14:00.948Z,96651.31
2023-02-19T21:16:29.422Z,96649.66
2023-02-19T21:18:56.488Z,96636.09
2023-02-19T21:21:26.198Z,96638.50
2023-02-19T21:23:57.151Z,96635.47
2023-02-19T21:26:25.625Z,96642.47
2023-02-19T21:28:52.480Z,96644.28
2023-02-19T21:31:20.220Z,96646.22
2023-02-19T21:33:47.038Z,96654.63
2023-02-19T21:36:13.911Z,96651.81
2023-02-19T21:38:40.723Z,96651.00
2023-02-19T21:41:07.426Z,96642.91
2023-02-19T21:43:34.044Z,96650.13
2023-02-19T21:46:00.740Z,96639.53
2023-02-19T21:48:27.382Z,96639.81
2023-02-19T21:50:53.976Z,96640.25
2023-02-19T21:53:20.596Z,96640.66
2023-02-19T21:56:43.580Z,96640.66
2023-02-19T21:59:10.487Z,96644.84
2023-02-19T22:04:19.480Z,96628.50
2023-02-19T22:06:46.379Z,96631.41
2023-02-19T22:11:51.349Z,96645.59
2023-02-19T22:14:18.095Z,96650.34
2023-02-19T22:16:44.850Z,96651.97
2023-02-19T22:19:12.908Z,96658.81
2023-02-19T22:21:43.681Z,96669.81
2023-02-19T22:24:18.919Z,96685.41
2023-02-19T22:26:46.333Z,96684.50
2023-02-19T22:29:15.345Z,96693.50
2023-02-19T22:31:42.317Z,96696.25
2023-02-19T22:34:09.749Z,96708.38
2023-02-19T22:36:40.517Z,96709.75
2023-02-19T22:39:15.598Z,96716.22
2023-02-19T22:41:43.437Z,96710.34
2023-02-19T22:44:11.204Z,96724.88
2023-02-19T22:46:37.897Z,96731.56
2023-02-19T22:49:06.374Z,96729.31
2023-02-19T22:51:35.648Z,96726.56
2023-02-19T22:55:17.328Z,96733.75
2023-02-19T22:57:43.971Z,96731.91
2023-02-19T23:00:18.286Z,96748.81
2023-02-19T23:02:46.883Z,96739.81
2023-02-19T23:05:13.582Z,96754.84
2023-02-19T23:07:44.862Z,96760.13
2023-02-19T23:10:14.730Z,96765.09
2023-02-19T23:14:01.099Z,96784.16
2023-02-19T23:16:28.428Z,96781.00
2023-02-19T23:18:55.493Z,96776.41
2023-02-19T23:21:22.970Z,96792.41
2023-02-19T23:27:30.283Z,96793.44
2023-02-19T23:29:56.917Z,96791.63
2023-02-19T23:32:23.895Z,96793.06
2023-02-19T23:34:51.221Z,96788.13
2023-02-19T23:37:18.034Z,96782.25
2023-02-19T23:39:44.794Z,96785.19
2023-02-19T23:42:15.710Z,96788.03
2023-02-19T23:44:42.969Z,96777.00
2023-02-19T23:47:09.586Z,96798.63
2023-02-19T23:49:36.260Z,96796.88
2023-02-19T23:52:03.261Z,96805.34
2023-02-19T23:54:30.006Z,96809.19
2023-02-19T23:56:56.690Z,96813.03
2023-02-19T23:59:23.857Z,96807.97
